Irving, TX (75014)

2:30 AM CST on February 24, 2017 (GMT -0600)
Marvel Drive | | Change Station

Elev 454 ft 32.80 °N, 96.97 °W | Updated 18 seconds ago

Clear
Clear
63.6 °F
Feels Like 63.6 °F
N
0.0
Wind Variable Wind from SSW

Today
High -- | Low -- °F
--% Chance of Precip.
Yesterday
High -- | Low -- °F
Precip. -- in
Pressure 29.58 in
Visibility 10.0 miles
Clouds Few 18000 ft
Dew Point 58 °F
Humidity 83%
Rainfall 0.00 in
Snow Depth Not available.
7:01 AM 6:21 PM
Waning Crescent, 6% visible
METAR KDAL 240753Z 21007KT 10SM FEW180 20/15 A2960 RMK AO2 SLP016 T02000150
Pressure 29.58 in
Visibility 10.0 miles
Clouds Few 18000 ft
Dew Point 58 °F
Humidity 83%
Rainfall 0.00 in
Snow Depth Not available.
7:01 AM 6:21 PM
Waning Crescent, 6% visible
METAR KDAL 240753Z 21007KT 10SM FEW180 20/15 A2960 RMK AO2 SLP016 T02000150

Get Your Daily Forecast Email!

Thanks for signing up!

Be on the lookout for a verification email in your inbox.

You'll start receiving the daily forecast at 8 AM.

×

10-Day Weather Forecast

Almanac

Astronomy

Feb. 24, 2017 Rise Set
Actual Time
Civil Twilight
Nautical Twilight
Astronomical Twilight
Moon
Length of Visible Light
Length of Day
Tomorrow will be .
, % of the Moon is Illuminated

Today's Extremes

State Highs State Lows

Community

WunderPhotos

Upload Photos

1,962,540 photos uploaded!

WunderBlog® & News

Nearby

Air Quality

  Air Quality AQ Index Pollutant
Not available.

Snow Depth

Station Depth Elevation

Earthquake Activity

City Distance Mag. Time & Date
Minimum magnitude displayed is 2.5.

Coastal Water Temperatures

Place Temperature

Stations

Nearby Weather Stations

Station Location Temp. Windchill Dew Point Humidity Wind Precip. Elev Updated Type
                   

Watches & Warnings

There are currently no watches in effect.